createdAt,value
2022-10-28T00:01:32.685Z,64.26
2022-10-28T00:04:02.900Z,64.15
2022-10-28T00:06:36.107Z,64.01
2022-10-28T00:09:08.162Z,63.90
2022-10-28T00:11:39.556Z,64.11
2022-10-28T00:14:09.409Z,64.06
2022-10-28T00:16:39.423Z,64.13
2022-10-28T00:19:11.700Z,64.53
2022-10-28T00:21:42.536Z,64.50
2022-10-28T00:24:13.738Z,64.67
2022-10-28T00:26:44.308Z,64.75
2022-10-28T00:29:15.039Z,65.17
2022-10-28T00:31:45.319Z,65.40
2022-10-28T00:34:16.418Z,65.60
2022-10-28T00:36:46.814Z,65.98
2022-10-28T00:39:18.427Z,66.04
2022-10-28T00:41:49.636Z,66.32
2022-10-28T00:44:58.426Z,66.63
2022-10-28T00:47:52.633Z,66.77
2022-10-28T00:50:42.543Z,67.28
2022-10-28T00:53:16.060Z,67.46
2022-10-28T00:55:45.514Z,67.53
2022-10-28T00:58:14.407Z,68.09
2022-10-28T01:00:42.994Z,68.43
2022-10-28T01:03:12.693Z,68.65
2022-10-28T01:05:44.128Z,69.08
2022-10-28T01:08:12.809Z,69.31
2022-10-28T01:11:02.802Z,69.64
2022-10-28T01:13:45.462Z,69.69
2022-10-28T01:16:27.204Z,69.74
2022-10-28T01:19:23.077Z,70.03
2022-10-28T01:22:08.463Z,70.01
2022-10-28T01:24:57.513Z,70.07
2022-10-28T01:28:01.141Z,70.24
2022-10-28T01:30:40.883Z,70.18
2022-10-28T01:33:20.635Z,70.23
2022-10-28T01:35:57.787Z,70.15
2022-10-28T01:38:35.374Z,70.30
2022-10-28T01:41:12.464Z,70.49
2022-10-28T01:43:49.783Z,70.35
2022-10-28T01:46:21.664Z,70.67
2022-10-28T01:48:58.164Z,70.74
2022-10-28T01:51:31.147Z,70.78
2022-10-28T01:54:03.506Z,70.80
2022-10-28T01:56:38.099Z,70.92
2022-10-28T01:59:10.565Z,71.12
2022-10-28T02:01:39.295Z,71.12
2022-10-28T02:04:09.236Z,71.15
2022-10-28T02:06:39.929Z,71.23
2022-10-28T02:09:21.703Z,71.46
2022-10-28T02:12:09.849Z,71.86
2022-10-28T02:14:56.753Z,71.97
2022-10-28T02:17:34.118Z,72.19
2022-10-28T02:20:17.079Z,72.15
2022-10-28T02:22:50.758Z,72.27
2022-10-28T02:25:23.299Z,72.12
2022-10-28T02:27:59.150Z,72.06
2022-10-28T02:30:33.975Z,72.39
2022-10-28T02:33:04.762Z,72.50
2022-10-28T02:35:40.315Z,72.44
2022-10-28T02:38:15.029Z,72.35
2022-10-28T02:40:44.758Z,72.56
2022-10-28T02:43:16.726Z,72.07
2022-10-28T02:45:49.813Z,72.49
2022-10-28T02:48:22.357Z,72.62
2022-10-28T02:50:59.122Z,72.81
2022-10-28T02:53:33.607Z,73.11
2022-10-28T02:56:04.575Z,73.43
2022-10-28T02:58:40.006Z,73.86
2022-10-28T03:01:08.873Z,73.95
2022-10-28T03:03:37.297Z,74.23
2022-10-28T03:06:07.181Z,74.38
2022-10-28T03:08:35.419Z,75.03
2022-10-28T03:11:03.687Z,75.35
2022-10-28T03:13:31.946Z,75.57
2022-10-28T03:16:00.180Z,75.95
2022-10-28T03:18:28.709Z,76.11
2022-10-28T03:20:59.007Z,76.31
2022-10-28T03:23:28.925Z,76.41
2022-10-28T03:25:57.133Z,76.71
2022-10-28T03:28:25.480Z,76.85
2022-10-28T03:30:53.644Z,76.96
2022-10-28T03:33:21.882Z,77.23
2022-10-28T03:35:50.076Z,77.13
2022-10-28T03:38:18.422Z,77.09
2022-10-28T03:40:50.359Z,77.08
2022-10-28T03:43:19.094Z,77.57
2022-10-28T03:45:48.807Z,77.69
2022-10-28T03:48:17.228Z,77.63
2022-10-28T03:50:45.660Z,77.45
2022-10-28T03:53:13.890Z,77.31
2022-10-28T03:55:42.211Z,77.46
2022-10-28T03:58:11.880Z,77.60
2022-10-28T04:00:40.159Z,77.89
2022-10-28T04:03:08.400Z,77.70
2022-10-28T04:05:36.680Z,77.44
2022-10-28T04:08:05.475Z,77.91
2022-10-28T04:10:33.798Z,78.26
2022-10-28T04:13:02.732Z,77.59
2022-10-28T04:15:32.516Z,77.36
2022-10-28T04:18:00.803Z,77.42
2022-10-28T04:20:29.289Z,76.79
2022-10-28T04:22:57.731Z,77.03
2022-10-28T04:25:28.868Z,77.05
2022-10-28T04:27:57.398Z,77.12
2022-10-28T04:30:26.018Z,77.30
2022-10-28T04:32:55.925Z,77.44
2022-10-28T04:35:25.172Z,77.72
2022-10-28T04:37:53.563Z,77.88
2022-10-28T04:40:22.135Z,78.08
2022-10-28T04:42:50.539Z,78.42
2022-10-28T04:45:19.122Z,78.52
2022-10-28T04:47:47.346Z,78.77
2022-10-28T04:50:17.245Z,78.59
2022-10-28T04:52:45.522Z,78.53
2022-10-28T04:55:13.995Z,78.39
2022-10-28T04:57:42.537Z,78.43
2022-10-28T05:00:12.783Z,78.68
2022-10-28T05:02:45.262Z,78.69
2022-10-28T05:07:45.919Z,79.57
2022-10-28T05:10:17.917Z,79.55
2022-10-28T05:12:46.719Z,79.86
2022-10-28T05:15:17.680Z,80.05
2022-10-28T05:17:48.151Z,79.90
2022-10-28T05:20:19.205Z,80.38
2022-10-28T05:22:48.320Z,80.47
2022-10-28T05:25:17.286Z,79.75
2022-10-28T05:27:45.690Z,79.33
2022-10-28T05:30:14.821Z,78.77
2022-10-28T05:32:43.315Z,78.41
2022-10-28T05:35:12.724Z,78.37
2022-10-28T05:37:42.288Z,78.00
2022-10-28T05:40:12.758Z,77.59
2022-10-28T05:42:44.403Z,78.12
2022-10-28T05:45:14.176Z,78.65
2022-10-28T05:47:45.172Z,78.93
2022-10-28T05:50:14.632Z,79.25
2022-10-28T05:52:48.740Z,79.18
2022-10-28T05:55:19.332Z,79.23
2022-10-28T05:57:48.987Z,78.78
2022-10-28T06:00:19.120Z,78.56
2022-10-28T06:06:00.462Z,78.35
2022-10-28T06:08:30.611Z,78.63
2022-10-28T06:10:57.453Z,78.26
2022-10-28T06:13:25.792Z,78.37
2022-10-28T06:15:55.709Z,78.19
2022-10-28T06:18:24.593Z,78.23
2022-10-28T06:20:54.484Z,77.89
2022-10-28T06:23:23.705Z,77.67
2022-10-28T06:28:26.497Z,77.97
2022-10-28T06:30:55.303Z,78.24
2022-10-28T06:33:23.604Z,78.52
2022-10-28T06:35:56.769Z,79.14
2022-10-28T06:38:25.241Z,78.68
2022-10-28T06:40:57.741Z,77.45
2022-10-28T06:43:26.188Z,76.99
2022-10-28T06:45:55.786Z,76.24
2022-10-28T06:48:26.108Z,76.51
2022-10-28T06:50:57.678Z,75.95
2022-10-28T06:53:26.449Z,76.10
2022-10-28T06:55:57.255Z,76.15
2022-10-28T06:58:27.013Z,75.78
2022-10-28T07:00:55.827Z,75.36
2022-10-28T07:03:24.390Z,74.50
2022-10-28T07:05:52.594Z,74.34
2022-10-28T07:08:21.114Z,74.61
2022-10-28T07:10:57.216Z,74.65
2022-10-28T07:13:26.069Z,75.01
2022-10-28T07:15:55.647Z,74.77
2022-10-28T07:18:25.834Z,74.59
2022-10-28T07:20:54.283Z,74.49
2022-10-28T07:23:22.650Z,74.75
2022-10-28T07:25:56.678Z,74.61
2022-10-28T07:28:26.620Z,75.00
2022-10-28T07:30:55.347Z,74.88
2022-10-28T07:33:23.572Z,75.05
2022-10-28T07:35:51.979Z,75.10
2022-10-28T07:38:20.230Z,76.10
2022-10-28T07:40:48.763Z,75.98
2022-10-28T07:43:18.466Z,76.24
2022-10-28T07:45:46.837Z,76.92
2022-10-28T07:48:15.281Z,77.39
2022-10-28T07:50:43.656Z,77.27
2022-10-28T07:53:12.050Z,77.60
2022-10-28T07:55:40.513Z,78.10
2022-10-28T07:58:08.793Z,77.99
2022-10-28T08:00:38.456Z,77.52
2022-10-28T08:03:06.825Z,77.67
2022-10-28T08:05:35.101Z,77.22
2022-10-28T08:08:03.501Z,76.79
2022-10-28T08:10:31.801Z,76.26
2022-10-28T08:13:01.081Z,76.01
2022-10-28T08:15:29.903Z,75.75
2022-10-28T08:17:59.563Z,75.54
2022-10-28T08:20:28.009Z,75.65
2022-10-28T08:22:56.611Z,76.05
2022-10-28T08:25:25.113Z,76.10
2022-10-28T08:27:53.490Z,75.89
2022-10-28T08:30:21.831Z,75.64
2022-10-28T08:32:50.223Z,75.19
2022-10-28T08:35:19.930Z,75.87
2022-10-28T08:37:53.042Z,77.01
2022-10-28T08:40:28.845Z,77.49
2022-10-28T08:43:04.918Z,78.38
2022-10-28T08:45:47.727Z,78.99
2022-10-28T08:48:25.177Z,79.02
2022-10-28T08:51:00.389Z,79.35
2022-10-28T08:53:33.499Z,79.61
2022-10-28T08:56:14.184Z,79.44
2022-10-28T08:58:45.186Z,79.21
2022-10-28T09:01:34.792Z,78.46
2022-10-28T09:04:14.459Z,77.77
2022-10-28T09:06:44.016Z,78.09
2022-10-28T09:09:19.916Z,78.16
2022-10-28T09:12:12.704Z,78.33
2022-10-28T09:15:08.273Z,78.42
2022-10-28T09:17:46.289Z,78.99
2022-10-28T09:20:20.597Z,80.69
2022-10-28T09:22:57.749Z,79.70
2022-10-28T09:25:35.519Z,79.07
2022-10-28T09:28:32.374Z,79.85
2022-10-28T09:31:08.339Z,80.46
2022-10-28T09:33:52.618Z,81.05
2022-10-28T09:36:26.452Z,81.46
2022-10-28T09:38:58.416Z,82.28
2022-10-28T09:41:32.290Z,81.80
2022-10-28T09:44:08.761Z,80.92
2022-10-28T09:46:39.341Z,80.29
2022-10-28T09:49:15.644Z,79.39
2022-10-28T09:51:50.815Z,76.49
2022-10-28T09:54:29.982Z,71.97
2022-10-28T09:56:58.258Z,72.23
2022-10-28T09:59:26.623Z,73.27
2022-10-28T10:01:55.031Z,73.61
2022-10-28T10:04:26.494Z,74.98
2022-10-28T10:06:59.005Z,75.51
2022-10-28T10:09:32.045Z,75.33
2022-10-28T10:12:04.713Z,75.38
2022-10-28T10:14:41.847Z,75.42
2022-10-28T10:17:17.206Z,73.43
2022-10-28T10:20:05.164Z,70.44
2022-10-28T10:22:36.002Z,68.29
2022-10-28T10:25:23.691Z,65.61
2022-10-28T10:27:53.667Z,65.44
2022-10-28T10:30:25.624Z,64.83
2022-10-28T10:32:54.239Z,63.87
2022-10-28T10:35:26.893Z,65.23
2022-10-28T10:37:58.542Z,64.69
2022-10-28T10:40:32.032Z,65.30
2022-10-28T10:43:24.657Z,65.19
2022-10-28T10:46:03.868Z,64.66
2022-10-28T10:48:36.167Z,63.98
2022-10-28T10:51:10.563Z,63.73
2022-10-28T10:53:40.958Z,61.60
2022-10-28T10:56:13.145Z,61.95
2022-10-28T10:58:49.655Z,60.83
2022-10-28T11:01:22.082Z,60.39
2022-10-28T11:03:55.000Z,60.64
2022-10-28T11:06:30.348Z,60.93
2022-10-28T11:09:01.343Z,60.82
2022-10-28T11:11:37.486Z,60.77
2022-10-28T11:14:12.409Z,59.40
2022-10-28T11:16:52.008Z,59.68
2022-10-28T11:19:23.951Z,59.04
2022-10-28T11:22:10.401Z,59.57
2022-10-28T11:24:55.456Z,60.21
2022-10-28T11:27:32.833Z,59.81
2022-10-28T11:30:02.293Z,60.08
2022-10-28T11:33:01.686Z,60.02
2022-10-28T11:35:51.202Z,60.20
2022-10-28T11:38:56.390Z,59.91
2022-10-28T11:41:38.964Z,59.31
2022-10-28T11:44:24.315Z,60.24
2022-10-28T11:47:07.876Z,60.33
2022-10-28T11:50:09.115Z,60.21
2022-10-28T11:52:54.555Z,59.63
2022-10-28T11:55:34.155Z,60.02
2022-10-28T11:58:26.442Z,59.90
2022-10-28T12:01:27.381Z,60.16
2022-10-28T12:04:10.601Z,61.76
2022-10-28T12:07:02.620Z,62.48
2022-10-28T12:09:45.558Z,64.39
2022-10-28T12:12:23.937Z,65.12
2022-10-28T12:15:02.122Z,64.32
2022-10-28T12:17:41.390Z,63.44
2022-10-28T12:20:18.686Z,64.36
2022-10-28T12:22:51.596Z,62.05
2022-10-28T12:25:26.505Z,64.01
2022-10-28T12:27:57.013Z,62.21
2022-10-28T12:30:28.985Z,63.11
2022-10-28T12:33:06.054Z,62.75
2022-10-28T12:35:38.789Z,61.66
2022-10-28T12:38:12.454Z,62.61
2022-10-28T12:40:46.064Z,62.55
2022-10-28T12:43:24.136Z,61.31
2022-10-28T12:45:56.213Z,61.33
2022-10-28T12:48:33.201Z,61.02
2022-10-28T12:51:08.005Z,60.23
2022-10-28T12:53:41.180Z,59.23
2022-10-28T12:56:14.809Z,58.33
2022-10-28T12:58:51.946Z,56.45
2022-10-28T13:01:23.632Z,56.50
2022-10-28T13:03:53.499Z,55.33
2022-10-28T13:06:42.528Z,54.24
2022-10-28T13:09:51.767Z,53.05
2022-10-28T13:12:53.378Z,52.88
2022-10-28T13:15:52.916Z,50.53
2022-10-28T13:18:48.045Z,50.18
2022-10-28T13:21:31.804Z,50.28
2022-10-28T13:24:12.640Z,50.88
2022-10-28T13:26:44.999Z,50.03
2022-10-28T13:29:23.128Z,48.30
2022-10-28T13:31:53.298Z,47.83
2022-10-28T13:34:31.847Z,47.23
2022-10-28T13:37:04.395Z,47.34
2022-10-28T13:39:45.576Z,47.08
2022-10-28T13:42:48.622Z,46.96
2022-10-28T13:45:52.428Z,47.48
2022-10-28T13:48:47.840Z,47.66
2022-10-28T13:51:37.438Z,48.00
2022-10-28T13:54:26.957Z,48.08
2022-10-28T13:57:03.369Z,48.33
2022-10-28T13:59:51.359Z,48.69
2022-10-28T14:02:35.147Z,49.06
2022-10-28T14:05:08.211Z,49.20
2022-10-28T14:07:39.974Z,49.54
2022-10-28T14:10:23.780Z,49.13
2022-10-28T14:12:56.832Z,49.25
2022-10-28T14:15:31.424Z,49.58
2022-10-28T14:18:15.885Z,49.45
2022-10-28T14:21:00.714Z,49.78
2022-10-28T14:24:01.629Z,49.60
2022-10-28T14:26:31.515Z,50.25
2022-10-28T14:28:59.856Z,49.89
2022-10-28T14:31:44.284Z,50.07
2022-10-28T14:34:44.986Z,49.93
2022-10-28T14:38:15.703Z,50.41
2022-10-28T14:40:50.890Z,50.53
2022-10-28T14:43:42.629Z,50.84
2022-10-28T14:46:33.944Z,50.41
2022-10-28T14:49:04.716Z,50.64
2022-10-28T14:51:41.800Z,50.96
2022-10-28T14:54:16.848Z,50.79
2022-10-28T14:56:46.211Z,50.73
2022-10-28T14:59:28.573Z,51.02
2022-10-28T15:02:13.902Z,50.91
2022-10-28T15:04:45.247Z,51.20
2022-10-28T15:07:16.699Z,51.30
2022-10-28T15:09:48.756Z,51.32
2022-10-28T15:12:19.060Z,51.50
2022-10-28T15:14:52.193Z,52.00
2022-10-28T15:17:23.891Z,51.12
2022-10-28T15:19:54.939Z,51.64
2022-10-28T15:22:25.396Z,52.23
2022-10-28T15:24:56.264Z,52.03
2022-10-28T15:27:26.918Z,52.20
2022-10-28T15:29:57.849Z,52.04
2022-10-28T15:32:33.681Z,52.07
2022-10-28T15:35:39.304Z,51.90
2022-10-28T15:38:34.547Z,51.55
2022-10-28T15:41:03.218Z,50.86
2022-10-28T15:43:32.484Z,51.09
2022-10-28T15:46:14.840Z,50.93
2022-10-28T15:48:43.474Z,51.18
2022-10-28T15:51:13.748Z,51.06
2022-10-28T15:53:44.167Z,51.58
2022-10-28T15:56:30.744Z,51.49
2022-10-28T15:59:11.393Z,51.08
2022-10-28T16:01:42.065Z,51.24
2022-10-28T16:04:43.972Z,50.56
2022-10-28T16:07:12.860Z,50.54
2022-10-28T16:09:47.293Z,51.13
2022-10-28T16:12:17.098Z,51.39
2022-10-28T16:14:46.808Z,51.16
2022-10-28T16:17:19.434Z,51.41
2022-10-28T16:19:53.732Z,52.06
2022-10-28T16:22:23.748Z,52.69
2022-10-28T16:24:53.666Z,53.49
2022-10-28T16:27:24.232Z,54.06
2022-10-28T16:29:52.824Z,54.47
2022-10-28T16:32:28.728Z,55.05
2022-10-28T16:34:58.581Z,55.17
2022-10-28T16:37:29.262Z,55.47
2022-10-28T16:39:58.746Z,55.78
2022-10-28T16:42:27.877Z,55.68
2022-10-28T16:44:56.092Z,55.49
2022-10-28T16:47:27.613Z,55.41
2022-10-28T16:49:57.634Z,56.06
2022-10-28T16:52:28.265Z,55.70
2022-10-28T16:54:57.810Z,55.64
2022-10-28T16:57:26.937Z,55.91
2022-10-28T16:59:55.796Z,56.22
2022-10-28T17:02:29.543Z,56.16
2022-10-28T17:04:59.321Z,56.35
2022-10-28T17:07:29.339Z,56.61
2022-10-28T17:09:58.018Z,56.64
2022-10-28T17:12:28.368Z,56.77
2022-10-28T17:14:56.659Z,57.41
2022-10-28T17:17:26.454Z,57.62
2022-10-28T17:19:54.736Z,58.08
2022-10-28T17:22:23.051Z,58.16
2022-10-28T17:24:51.453Z,58.58
2022-10-28T17:27:19.713Z,58.61
2022-10-28T17:29:48.364Z,58.79
2022-10-28T17:32:17.907Z,58.56
2022-10-28T17:34:47.992Z,59.08
2022-10-28T17:37:16.318Z,59.04
2022-10-28T17:39:44.876Z,59.07
2022-10-28T17:42:14.108Z,59.01
2022-10-28T17:44:43.535Z,59.48
2022-10-28T17:47:12.785Z,59.49
2022-10-28T17:49:41.090Z,59.55
2022-10-28T17:52:10.719Z,59.57
2022-10-28T17:54:39.064Z,59.76
2022-10-28T17:57:07.554Z,59.76
2022-10-28T17:59:35.897Z,59.79
2022-10-28T18:02:04.844Z,60.34
2022-10-28T18:04:33.286Z,60.58
2022-10-28T18:07:01.560Z,61.29
2022-10-28T18:09:31.725Z,61.53
2022-10-28T18:12:02.071Z,61.56
2022-10-28T18:14:31.009Z,62.16
2022-10-28T18:16:59.451Z,62.39
2022-10-28T18:19:27.813Z,62.33
2022-10-28T18:21:56.040Z,62.87
2022-10-28T18:24:26.089Z,62.49
2022-10-28T18:26:59.609Z,62.80
2022-10-28T18:29:27.906Z,62.62
2022-10-28T18:31:56.790Z,63.13
2022-10-28T18:34:25.234Z,63.20
2022-10-28T18:36:53.546Z,63.00
2022-10-28T18:39:21.827Z,63.26
2022-10-28T18:41:51.444Z,62.66
2022-10-28T18:44:24.125Z,62.41
2022-10-28T18:46:52.579Z,62.37
2022-10-28T18:49:20.853Z,61.72
2022-10-28T18:51:49.227Z,61.58
2022-10-28T18:54:17.506Z,61.73
2022-10-28T18:56:47.896Z,61.60
2022-10-28T18:59:16.927Z,61.70
2022-10-28T19:01:46.997Z,61.95
2022-10-28T19:04:15.776Z,62.15
2022-10-28T19:06:44.220Z,62.23
2022-10-28T19:09:12.468Z,62.13
2022-10-28T19:11:40.685Z,62.11
2022-10-28T19:14:09.819Z,62.19
2022-10-28T19:16:38.180Z,62.48
2022-10-28T19:19:07.922Z,62.44
2022-10-28T19:21:36.312Z,62.39
2022-10-28T19:24:05.400Z,62.46
2022-10-28T19:26:34.765Z,61.93
2022-10-28T19:29:05.652Z,62.49
2022-10-28T19:31:36.850Z,61.88
2022-10-28T19:34:05.654Z,61.85
2022-10-28T19:36:35.427Z,62.06
2022-10-28T19:39:04.689Z,61.64
2022-10-28T19:41:33.059Z,61.37
2022-10-28T19:44:03.690Z,61.16
2022-10-28T19:46:34.248Z,61.52
2022-10-28T19:49:05.682Z,61.06
2022-10-28T19:51:38.128Z,61.73
2022-10-28T19:54:10.795Z,61.82
2022-10-28T19:56:40.046Z,61.88
2022-10-28T19:59:08.639Z,62.52
2022-10-28T20:01:38.992Z,62.85
2022-10-28T20:04:08.237Z,63.39
2022-10-28T20:06:40.334Z,63.26
2022-10-28T20:09:08.867Z,63.51
2022-10-28T20:11:39.474Z,63.61
2022-10-28T20:14:11.477Z,63.83
2022-10-28T20:16:42.433Z,64.07
2022-10-28T20:19:11.177Z,64.12
2022-10-28T20:21:41.043Z,64.01
2022-10-28T20:24:09.879Z,64.40
2022-10-28T20:26:39.629Z,64.96
2022-10-28T20:29:09.582Z,65.22
2022-10-28T20:31:38.936Z,64.98
2022-10-28T20:34:08.707Z,64.91
2022-10-28T20:36:40.423Z,65.00
2022-10-28T20:39:13.787Z,64.68
2022-10-28T20:41:44.160Z,65.03
2022-10-28T20:44:13.868Z,65.09
2022-10-28T20:46:42.884Z,65.33
2022-10-28T20:49:13.053Z,65.42
2022-10-28T20:51:43.089Z,65.64
2022-10-28T20:54:11.339Z,65.45
2022-10-28T20:56:42.227Z,65.18
2022-10-28T20:59:10.695Z,64.91
2022-10-28T21:01:41.734Z,65.27
2022-10-28T21:04:12.412Z,64.51
2022-10-28T21:06:42.452Z,63.88
2022-10-28T21:09:11.704Z,63.97
2022-10-28T21:11:40.092Z,64.06
2022-10-28T21:14:08.597Z,64.56
2022-10-28T21:16:37.143Z,65.34
2022-10-28T21:19:05.517Z,67.01
2022-10-28T21:21:33.776Z,68.02
2022-10-28T21:24:03.690Z,67.93
2022-10-28T21:26:31.924Z,67.67
2022-10-28T21:29:00.141Z,67.68
2022-10-28T21:31:28.469Z,68.88
2022-10-28T21:33:56.780Z,69.25
2022-10-28T21:36:25.139Z,70.01
2022-10-28T21:38:56.343Z,69.64
2022-10-28T21:41:26.543Z,68.91
2022-10-28T21:43:55.452Z,69.32
2022-10-28T21:46:24.322Z,69.71
2022-10-28T21:48:53.998Z,70.70
2022-10-28T21:51:22.455Z,71.03
2022-10-28T21:53:50.712Z,69.29
2022-10-28T21:56:20.564Z,70.03
2022-10-28T21:58:52.214Z,71.22
2022-10-28T22:01:23.747Z,71.70
2022-10-28T22:03:55.544Z,71.40
2022-10-28T22:06:24.337Z,71.69
2022-10-28T22:08:54.104Z,72.23
2022-10-28T22:11:24.827Z,72.69
2022-10-28T22:14:00.308Z,73.24
2022-10-28T22:16:30.726Z,73.34
2022-10-28T22:19:00.776Z,73.58
2022-10-28T22:21:32.305Z,73.73
2022-10-28T22:24:01.115Z,74.00
2022-10-28T22:26:31.787Z,74.13
2022-10-28T22:29:01.690Z,74.23
2022-10-28T22:31:32.527Z,74.77
2022-10-28T22:34:01.357Z,74.80
2022-10-28T22:36:31.194Z,75.30
2022-10-28T22:38:59.452Z,75.31
2022-10-28T22:41:29.771Z,75.49
2022-10-28T22:44:02.006Z,75.72
2022-10-28T22:46:36.543Z,76.35
2022-10-28T22:49:05.282Z,76.85
2022-10-28T22:51:33.964Z,76.98
2022-10-28T22:54:02.179Z,77.50
2022-10-28T22:56:30.622Z,77.70
2022-10-28T22:59:02.685Z,78.21
2022-10-28T23:01:31.382Z,78.12
2022-10-28T23:04:00.887Z,78.20
2022-10-28T23:06:30.117Z,78.09
2022-10-28T23:08:59.203Z,78.19
2022-10-28T23:11:27.675Z,78.46
2022-10-28T23:13:56.739Z,78.60
2022-10-28T23:16:26.643Z,79.13
2022-10-28T23:18:55.093Z,79.19
2022-10-28T23:21:25.778Z,79.43
2022-10-28T23:23:55.546Z,79.97
2022-10-28T23:26:25.295Z,80.21
2022-10-28T23:28:55.475Z,80.36
2022-10-28T23:31:26.050Z,80.79
2022-10-28T23:33:55.105Z,80.84
2022-10-28T23:36:24.054Z,80.88
2022-10-28T23:38:53.842Z,80.99
2022-10-28T23:41:22.046Z,80.78
2022-10-28T23:43:50.616Z,81.03
2022-10-28T23:46:20.359Z,81.19
2022-10-28T23:48:50.032Z,81.23
2022-10-28T23:51:20.467Z,81.14
2022-10-28T23:53:48.749Z,81.13
2022-10-28T23:56:17.201Z,81.01
2022-10-28T23:58:45.476Z,81.07
